Okara Weather



Okara's Current Weather

Temprature 12.69o light rain

light rain

Rain: 150 %

Min Temprature12.69o
Max Temprature12.69o
Humidity88
Wind Speed3.1 m/h
Sun Rise07:00:55
Sun Set17:36:22
Current Time: 27-Jan-2020 18:23:43
Lat/Lon: 30.81, 73.45




Okara's Geo Location



Okara's Weather Forecast

Time Overall Temp Min Temp Max Temp Humidity Wind Speed Rain
27-Jan-2020 (Mon)
20:00:00 light rain 11.230 11.230 11.230 93 4.06 m/h 188 %
23:00:00 light rain 10.330 10.330 10.330 94 2.77 m/h 113 %
28-Jan-2020 (Tue)
02:00:00 light rain 11.220 11.220 11.220 92 3.78 m/h 213 %
05:00:00 light rain 11.320 11.320 11.320 93 4.43 m/h 163 %
08:00:00 light rain 11.310 11.310 11.310 92 3.64 m/h 38 %
11:00:00 light rain 13.780 13.780 13.780 83 3.47 m/h 19 %
14:00:00 light rain 13.660 13.660 13.660 86 3.14 m/h 63 %
17:00:00 light rain 13.610 13.610 13.610 87 2.96 m/h 100 %
20:00:00 light rain 12.170 12.170 12.170 94 2.34 m/h 19 %
23:00:00 light rain 10.650 10.650 10.650 96 0.93 m/h 6 %
29-Jan-2020 (Wed)
02:00:00 scattered clouds 9.610 9.610 9.610 98 2.01 m/h 0 %
05:00:00 light rain 10.820 10.820 10.820 95 1.16 m/h 19 %
08:00:00 light rain 11.070 11.070 11.070 93 1.28 m/h 19 %
11:00:00 light rain 15.050 15.050 15.050 75 2.34 m/h 19 %
14:00:00 light rain 16.450 16.450 16.450 66 2.76 m/h 206 %
17:00:00 light rain 14.270 14.270 14.270 79 2.54 m/h 225 %
20:00:00 clear sky 10.910 10.910 10.910 87 2.34 m/h 0 %
23:00:00 clear sky 9.500 9.500 9.500 89 1.8 m/h 0 %
30-Jan-2020 (Thu)
02:00:00 clear sky 8.740 8.740 8.740 89 2 m/h 0 %
05:00:00 clear sky 7.610 7.610 7.610 90 1.92 m/h 0 %
08:00:00 clear sky 8.310 8.310 8.310 84 1.88 m/h 0 %
11:00:00 clear sky 15.060 15.060 15.060 59 2.85 m/h 0 %
14:00:00 few clouds 18.560 18.560 18.560 43 3.1 m/h 0 %
17:00:00 clear sky 16.000 16.000 16.000 52 1.67 m/h 0 %
20:00:00 clear sky 11.650 11.650 11.650 62 0.69 m/h 0 %
23:00:00 clear sky 10.040 10.040 10.040 68 2.02 m/h 0 %
31-Jan-2020 (Fri)
02:00:00 clear sky 8.870 8.870 8.870 70 1.23 m/h 0 %
05:00:00 clear sky 8.460 8.460 8.460 74 1.16 m/h 0 %
08:00:00 clear sky 9.610 9.610 9.610 71 0.42 m/h 0 %
11:00:00 clear sky 16.810 16.810 16.810 46 2.2 m/h 0 %
14:00:00 broken clouds 19.150 19.150 19.150 30 3.41 m/h 0 %
17:00:00 broken clouds 16.040 16.040 16.040 42 1.76 m/h 0 %
20:00:00 clear sky 11.480 11.480 11.480 47 0.37 m/h 0 %
23:00:00 clear sky 10.220 10.220 10.220 51 0.98 m/h 0 %
01-Feb-2020 (Sat)
02:00:00 clear sky 9.130 9.130 9.130 55 1.11 m/h 0 %
05:00:00 clear sky 8.000 8.000 8.000 60 0.81 m/h 0 %
08:00:00 clear sky 9.960 9.960 9.960 58 0.91 m/h 0 %
11:00:00 clear sky 17.670 17.670 17.670 38 1.98 m/h 0 %
14:00:00 clear sky 20.010 20.010 20.010 30 2.63 m/h 0 %
17:00:00 clear sky 17.040 17.040 17.040 41 1.92 m/h 0 %

Famous Cities (61)